Portada
METAR-TAF:

METAR-TAF

Aeroports :

Ciutat de Panamà, Panamà

latitud: 08-59N, longitud: 079-31W, altitud: 13 m

Observació

L'informe es va fer fa 1 hora i 4 minuts, a les 00:00 UTC
Vent 3 kt del Sud/Sud-Est, variant entre Est i Sud
Temperatura 28°C
Humitat 74%
Pressió 1010 hPa
Visibilitat 10 km o més
Escasses núvols a una alçada de 1800 ft

METAR: MPMG 270000Z 15003KT 090V190 9999 FEW018 28/23 Q1010 NOSIG

Hora: 20:04 (01:04 UTC)

Pronòstic

L'informe es va fer fa 2 hores i 4 minuts, a les 23:00 UTC
Pronòstic vàlid del 27 a les 00 UTC al 27 a les 12 UTC
Vent 7 kt del Sud
Visibilitat 10 km o més
Núvols disperses a una alçada de 1800 ft
Probabilitat 30% :
Temporalment
l' 27 a les 04 UTC al 27 a les 08 UTC
Visibilitat: 6000 m
Núvols disperses a una alçada de 1500 ft, Cumulonimbus.
Cel ennuvolat a una alçada de 9000 ft
tempesta, pluja

TAF: MPMG 262300Z 2700/2712 17007KT 9999 SCT018 PROB30 TEMPO 2704/2708 6000 TSRA SCT015CB BKN090

Observacions i pronòstics meteorològics de més de 4000 aeroports (METAR i TAF).

Les estacions disponibles són els punts grocs i vermells al mapa.

Posi el ratolí al punt desitjat per veure el nom de l'estació.

Feu clic per veure les observacions i els pronòstics meteorològics.

Per canviar el mapa: feu clic els botons verds amb una creu de color negre per apropar; al botó verd amb un guió per allunyar la imatge; o en les fletxes verdes per a mapes adjacents.


METAR-TAF: